Logansport, Indiana
Current Conditions -  °F | °C
As of 8:15 AM on Tuesday 21 Oct 2014 (Local Time) from KGGP Reporting Station
Overcast Overcast  
Wind Chill: 44°   Ceiling: 3900
Heat Index: 46°   Visibility: 10mi
Dew Point: 43°   Wind: 5mph
Humidity: 87%   Direction: 320°NW
Pressure: 30.06"   Gusts: NA
Location:  40.75°N, 86.36°W
Report Text: KGGP 211215Z AUTO 32004KT 10SM SCT032 BKN039 OVC050 08/06 A3006 RMK AO2
Loading
Personal Weather Stations






























Interactive Weather Map
Tropical Storm Tracking
New forecast layout! Learn more

10-Day Weather Forecast

Advertisements
Track Severe Weather on mobile